Aérodrome :
LOGIN :

S'inscrire | Disclaimer

   EN    FR    IT 

 










Légende :    VFR   VFR Marginal   IFR   IFR Intensif   IFR Très Intensif
Visi : 
Plafond : 
>= 8 km
>= 3000ft
5 à 8 km
1000 à 3000 ft
1500m à 5 km
500 à 1000 ft
800 à 1500m
200 à 500 ft
< 800m
< 200 ft
Symboles :   Orages  Brouillard  Fortes neiges  Fortes précipitations  Vent > 20 kt
SIGMETs :   Divers  Orages  Givrage  Turbulence  Onde Orograph.  Cendres Volcan.






- Altitude de l'aérodrome : 870 ft
- Code IATA : ETZ


LFJL - Metz Nancy Lorraine

DERNIER METAR :
  • 271100Z AUTO 11005KT 6000 FEW004 04/02 Q1019 NOSIG

METARs EXPIRÉS :
  • 271030Z AUTO 08004KT 8000 ////// 04/02 Q1019
  • 271000Z AUTO 07003KT 7000 NSC 03/02 Q1019 TEMPO 3000 BR
  • 270930Z AUTO 09004KT 6000 NSC 03/02 Q1019 TEMPO 3000 BR
  • 270900Z AUTO 10003KT 070V130 5000 BR NSC 02/01 Q1019 TEMPO 0500 FG VV///
  • 270830Z AUTO /////KT 4300 BR NSC M00/M01 Q1019
  • 270800Z AUTO 08003KT 3400 BR FEW002 M01/M02 Q1019 TEMPO 0500 FG VV///

TAF TAF LFJL
Valide du 27 à 06h jusqu'au 28 à 06h UTC


270500Z 2706/2806 11006KT 8000 NSC
TEMPO 2706/2711 3000 BR
PROB30
TEMPO 2706/2710 0500 FG VV///
TEMPO 2721/2806 4000 BR



MET'MAP, la Météo Aéronautique d'un coup d'oeil ! - Copyright ORBIFLY Décembre 2007 - Disclaimer

ORBIFLY MET'MAP TEAM :

Programmation & Développement : Alexandra Zaïnal
Sur une idée originale de : Baudouin d'Aumeries
Assistance à la programmation : Marc-Olivier Méhu
Soutien technique & logistique : Manuel Goepfert

Contact : metmap@orbifly.com




SOURCES & CREDITS :

   NOAA